Time;durP1;ratioP1;P1;durP2;ratioP2;P2;SDS_P1;SDS_P2;PMS_P1;PMS_P2;Temp;Humidity;BMP_temperature;BMP_pressure;BME280_temperature;BME280_humidity;BME280_pressure;Samples;Min_cycle;Max_cycle;Signal;HPM_P1;HPM_P2
2023/12/29 00:01:19;;;;;;;5.07;1.37;;;;;;;9.32;100.00;100170.38;6049750;28;20034;-72
2023/12/29 00:04:14;;;;;;;3.80;0.80;;;;;;;9.24;100.00;100165.81;6049589;28;20037;-73
2023/12/29 00:07:10;;;;;;;1.70;0.73;;;;;;;9.19;100.00;100160.13;6049639;28;20038;-75
2023/12/29 00:10:11;;;;;;;4.20;0.90;;;;;;;9.23;100.00;100153.59;6047954;28;20481;-74
2023/12/29 00:13:06;;;;;;;4.97;1.10;;;;;;;9.28;100.00;100166.34;6049503;28;20690;-73
2023/12/29 00:16:02;;;;;;;6.10;0.70;;;;;;;9.36;100.00;100167.25;6048640;28;20045;-72
2023/12/29 00:18:57;;;;;;;2.28;0.80;;;;;;;9.42;100.00;100179.88;6048274;28;20025;-74
2023/12/29 00:21:52;;;;;;;6.40;1.27;;;;;;;9.43;100.00;100176.25;6047450;28;20025;-73
2023/12/29 00:24:48;;;;;;;6.20;1.50;;;;;;;9.43;100.00;100170.94;6048621;28;20076;-74
2023/12/29 00:27:45;;;;;;;2.10;0.70;;;;;;;9.32;100.00;100157.94;6049339;28;20029;-73
2023/12/29 00:30:41;;;;;;;2.53;0.80;;;;;;;9.38;100.00;100156.50;6045922;28;20269;-73
2023/12/29 00:33:36;;;;;;;3.00;1.02;;;;;;;9.39;100.00;100159.03;6048313;28;20037;-74
2023/12/29 00:36:32;;;;;;;4.73;0.93;;;;;;;9.41;100.00;100157.03;6048284;28;20032;-75
2023/12/29 00:39:30;;;;;;;2.73;0.93;;;;;;;9.40;100.00;100155.38;6049241;28;20260;-76
2023/12/29 00:42:32;;;;;;;3.05;0.80;;;;;;;9.42;100.00;100153.44;6047039;28;20273;-72
2023/12/29 00:45:33;;;;;;;5.18;1.30;;;;;;;9.50;100.00;100145.56;6042924;28;20038;-74
2023/12/29 00:48:32;;;;;;;4.50;0.77;;;;;;;9.59;100.00;100151.75;6032215;28;20030;-73
2023/12/29 00:51:27;;;;;;;3.90;1.35;;;;;;;9.63;100.00;100149.59;6046059;28;20037;-74
2023/12/29 00:54:22;;;;;;;2.87;0.70;;;;;;;9.62;100.00;100140.81;6048209;28;20038;-75
2023/12/29 00:57:18;;;;;;;2.67;0.70;;;;;;;9.59;100.00;100136.66;6048239;28;20048;-73
2023/12/29 01:00:14;;;;;;;3.35;0.95;;;;;;;9.70;99.96;100132.13;6063081;28;20034;-75
2023/12/29 01:03:09;;;;;;;3.47;0.90;;;;;;;9.72;99.97;100132.81;6047350;28;20030;-73
2023/12/29 01:06:04;;;;;;;3.23;0.90;;;;;;;9.86;99.06;100134.88;6047996;28;20444;-73
2023/12/29 01:09:00;;;;;;;4.77;1.07;;;;;;;9.86;99.39;100129.59;6054505;28;20036;-73
2023/12/29 01:11:58;;;;;;;7.40;1.60;;;;;;;9.82;99.89;100121.13;6051715;28;20783;-74
2023/12/29 01:14:53;;;;;;;10.15;1.55;;;;;;;9.67;100.00;100109.44;6050750;28;20032;-73
2023/12/29 01:17:49;;;;;;;5.13;1.37;;;;;;;9.63;100.00;100110.72;6053952;28;20034;-73
2023/12/29 01:20:44;;;;;;;1.53;0.70;;;;;;;9.70;100.00;100119.75;6052769;28;20058;-73
2023/12/29 01:23:39;;;;;;;3.93;0.70;;;;;;;9.64;100.00;100114.22;6054437;28;20436;-75
2023/12/29 01:26:40;;;;;;;2.83;1.00;;;;;;;9.62;100.00;100116.19;6051978;28;20267;-75
2023/12/29 01:29:38;;;;;;;1.70;0.90;;;;;;;9.64;100.00;100103.63;6053854;28;20038;-75
2023/12/29 01:32:33;;;;;;;9.13;1.10;;;;;;;9.73;100.00;100108.00;6036229;28;20477;-74
2023/12/29 01:35:29;;;;;;;5.63;0.90;;;;;;;9.71;100.00;100115.25;6053800;28;20088;-74
2023/12/29 01:38:24;;;;;;;4.20;0.63;;;;;;;9.80;100.00;100124.91;6058490;28;20099;-73
2023/12/29 01:41:26;;;;;;;5.33;0.87;;;;;;;9.73;100.00;100102.72;6054403;28;20496;-75
2023/12/29 01:44:22;;;;;;;3.28;1.00;;;;;;;9.75;100.00;100116.63;6057724;28;20029;-74
2023/12/29 01:47:26;;;;;;;6.38;0.90;;;;;;;9.77;100.00;100115.47;6056572;28;20037;-74
2023/12/29 01:50:22;;;;;;;5.28;0.85;;;;;;;9.84;100.00;100102.41;6057520;28;20034;-74
2023/12/29 01:53:21;;;;;;;2.50;0.80;;;;;;;9.78;100.00;100103.91;6054373;28;20022;-74
2023/12/29 01:56:16;;;;;;;3.75;0.90;;;;;;;9.77;100.00;100106.69;6054495;28;20446;-75
2023/12/29 01:59:12;;;;;;;3.05;0.90;;;;;;;9.77;100.00;100109.34;6056954;28;20029;-74
2023/12/29 02:02:09;;;;;;;2.97;0.82;;;;;;;9.76;100.00;100097.06;6058916;28;20396;-75
2023/12/29 02:05:08;;;;;;;1.77;0.80;;;;;;;9.68;100.00;100083.78;6054072;28;20052;-73
2023/12/29 02:08:04;;;;;;;4.78;1.33;;;;;;;9.63;100.00;100080.78;6052511;28;20105;-72
2023/12/29 02:11:03;;;;;;;5.13;1.27;;;;;;;9.49;100.00;100075.06;6056418;28;20030;-74
2023/12/29 02:14:02;;;;;;;3.03;0.85;;;;;;;9.41;100.00;100076.81;6070678;28;20029;-73
2023/12/29 02:17:03;;;;;;;3.47;0.88;;;;;;;9.35;100.00;100072.13;6051984;28;20038;-74
2023/12/29 02:19:59;;;;;;;3.90;0.88;;;;;;;9.24;100.00;100065.28;6053783;28;20037;-73
2023/12/29 02:22:55;;;;;;;4.10;0.80;;;;;;;9.33;100.00;100061.72;6068936;28;20045;-74
2023/12/29 02:25:53;;;;;;;1.65;0.70;;;;;;;9.33;100.00;100043.19;6051626;28;20481;-73
2023/12/29 02:28:58;;;;;;;4.65;0.90;;;;;;;9.47;100.00;100058.53;6069732;28;20069;-73
2023/12/29 02:31:56;;;;;;;1.55;0.70;;;;;;;9.50;100.00;100054.72;6070275;28;20583;-74
2023/12/29 02:34:52;;;;;;;4.60;1.02;;;;;;;9.43;100.00;100041.28;6054440;28;20117;-74
2023/12/29 02:37:48;;;;;;;3.08;0.50;;;;;;;9.53;100.00;100060.56;6055020;28;20060;-75
2023/12/29 02:40:43;;;;;;;2.45;0.93;;;;;;;9.52;100.00;100040.34;6052832;28;20046;-74
2023/12/29 02:43:41;;;;;;;5.45;1.10;;;;;;;9.46;100.00;100042.78;6054736;28;20034;-75
2023/12/29 02:46:36;;;;;;;4.18;1.35;;;;;;;9.64;100.00;100050.69;6057046;28;20032;-73
2023/12/29 02:49:31;;;;;;;3.17;0.90;;;;;;;9.64;100.00;100048.03;6052754;28;20037;-74
2023/12/29 02:52:27;;;;;;;1.97;0.70;;;;;;;9.63;100.00;100038.44;6056376;28;20045;-72
2023/12/29 02:55:22;;;;;;;4.25;0.70;;;;;;;9.64;100.00;100045.38;6052751;28;20556;-73
2023/12/29 02:58:19;;;;;;;4.20;0.60;;;;;;;9.62;100.00;100039.44;6055081;28;20036;-73
2023/12/29 03:01:14;;;;;;;5.32;0.95;;;;;;;9.58;100.00;100026.50;6052990;28;20519;-74
2023/12/29 03:04:20;;;;;;;2.13;0.90;;;;;;;9.65;100.00;100031.19;6054266;28;20029;-74
2023/12/29 03:07:17;;;;;;;4.80;0.90;;;;;;;9.61;100.00;100013.94;6053415;28;20107;-73
2023/12/29 03:10:16;;;;;;;5.05;0.80;;;;;;;9.61;100.00;100012.13;6049261;28;20045;-73
2023/12/29 03:13:11;;;;;;;5.88;1.00;;;;;;;9.56;100.00;100007.31;6055868;28;20039;-74
2023/12/29 03:16:07;;;;;;;3.63;1.17;;;;;;;9.65;100.00;100025.88;6051187;28;20477;-73
2023/12/29 03:19:02;;;;;;;4.07;0.80;;;;;;;9.65;100.00;100010.00;6054046;28;20026;-74
2023/12/29 03:22:26;;;;;;;3.63;0.90;;;;;;;9.67;100.00;100002.72;6049930;28;20636;-75
2023/12/29 03:25:22;;;;;;;4.90;0.80;;;;;;;9.70;100.00;100007.72;6053170;28;20389;-73
2023/12/29 03:28:17;;;;;;;4.50;0.80;;;;;;;9.78;100.00;100008.59;6054901;28;20064;-76
2023/12/29 03:31:15;;;;;;;5.15;0.88;;;;;;;9.67;100.00;99998.25;6052832;28;20643;-74
2023/12/29 03:34:14;;;;;;;5.50;0.90;;;;;;;9.71;100.00;100010.19;6053704;28;20095;-75
2023/12/29 03:37:09;;;;;;;3.53;0.80;;;;;;;9.77;100.00;100019.31;6054587;28;20115;-75
2023/12/29 03:40:13;;;;;;;4.47;0.90;;;;;;;9.72;100.00;100005.72;6054463;28;20029;-75
2023/12/29 03:43:09;;;;;;;4.95;0.90;;;;;;;9.71;100.00;99980.22;6052471;28;20044;-73
2023/12/29 03:46:18;;;;;;;4.00;0.90;;;;;;;9.69;100.00;99991.00;6048079;28;20532;-74
2023/12/29 03:49:16;;;;;;;3.78;0.70;;;;;;;9.66;100.00;99993.94;6051428;28;20827;-74
2023/12/29 03:52:11;;;;;;;4.38;0.63;;;;;;;9.66;100.00;99990.47;6066193;28;20038;-74
2023/12/29 03:55:07;;;;;;;1.55;0.60;;;;;;;9.64;100.00;99993.28;6046033;28;20037;-75
2023/12/29 03:58:03;;;;;;;3.38;0.60;;;;;;;9.62;100.00;99986.50;6049410;28;20041;-74
2023/12/29 04:01:02;;;;;;;3.38;0.65;;;;;;;9.61;100.00;99979.53;6050684;28;20033;-74
2023/12/29 04:04:00;;;;;;;1.27;0.60;;;;;;;9.66;100.00;99985.16;6050650;28;20030;-74
2023/12/29 04:06:55;;;;;;;2.83;0.63;;;;;;;9.81;100.00;99995.00;6047767;28;20040;-74
2023/12/29 04:09:50;;;;;;;3.63;0.60;;;;;;;9.80;100.00;99992.53;6052430;28;20042;-74
2023/12/29 04:12:46;;;;;;;2.07;0.50;;;;;;;9.91;100.00;100010.78;6052256;28;20040;-73
2023/12/29 04:15:41;;;;;;;1.10;0.30;;;;;;;9.68;100.00;99980.53;6052994;28;20406;-73
2023/12/29 04:18:36;;;;;;;0.93;0.35;;;;;;;9.45;100.00;99998.78;6052588;28;20027;-71
2023/12/29 04:21:32;;;;;;;1.17;0.47;;;;;;;9.14;100.00;99994.94;6049464;28;20034;-71
2023/12/29 04:24:27;;;;;;;1.63;0.40;;;;;;;8.94;100.00;99986.38;6050159;28;20037;-72
2023/12/29 04:27:22;;;;;;;3.97;0.67;;;;;;;8.79;100.00;99972.03;6051254;28;20393;-73
2023/12/29 04:30:18;;;;;;;2.10;0.40;;;;;;;8.78;100.00;99967.72;6051923;28;20253;-73
2023/12/29 04:33:13;;;;;;;3.57;0.60;;;;;;;8.77;100.00;99960.78;6048002;28;20033;-71
2023/12/29 04:36:08;;;;;;;5.40;0.93;;;;;;;8.75;100.00;99920.47;6051103;28;20296;-73
2023/12/29 04:39:03;;;;;;;1.47;0.40;;;;;;;8.81;100.00;99925.13;6049183;28;20033;-73
2023/12/29 04:41:59;;;;;;;1.23;0.50;;;;;;;8.83;100.00;99931.09;6052349;28;20022;-73
2023/12/29 04:44:54;;;;;;;0.60;0.30;;;;;;;8.85;100.00;99955.56;6048889;28;20112;-74
2023/12/29 04:47:49;;;;;;;2.50;0.60;;;;;;;8.84;100.00;99945.97;6067746;28;20038;-73
2023/12/29 04:50:45;;;;;;;3.93;0.50;;;;;;;8.78;100.00;99946.56;6050258;28;20574;-72
2023/12/29 04:53:40;;;;;;;1.97;1.07;;;;;;;8.80;100.00;99957.84;6050916;28;20492;-73
2023/12/29 04:56:35;;;;;;;3.58;0.50;;;;;;;8.83;100.00;99947.78;6048967;28;20053;-75
2023/12/29 04:59:31;;;;;;;7.60;0.80;;;;;;;8.94;100.00;99959.94;6051134;28;20037;-73
2023/12/29 05:02:26;;;;;;;1.17;0.60;;;;;;;9.03;100.00;99960.81;6051575;28;20040;-74
2023/12/29 05:05:21;;;;;;;1.05;0.55;;;;;;;9.06;100.00;99945.47;6049893;28;20361;-72
2023/12/29 05:08:17;;;;;;;4.00;0.70;;;;;;;9.05;100.00;99959.66;6054902;28;20041;-74
2023/12/29 05:11:12;;;;;;;2.22;0.60;;;;;;;9.11;100.00;99966.97;6055362;28;20030;-73
2023/12/29 05:14:07;;;;;;;0.97;0.40;;;;;;;9.11;100.00;99974.91;6054138;28;20545;-74
2023/12/29 05:17:03;;;;;;;2.47;0.73;;;;;;;9.13;100.00;99967.66;6053183;28;20347;-73
2023/12/29 05:20:09;;;;;;;3.60;0.93;;;;;;;8.96;100.00;99965.91;6055346;28;20046;-73
2023/12/29 05:23:05;;;;;;;2.35;0.60;;;;;;;8.90;100.00;99971.78;6053884;28;20281;-72
2023/12/29 05:26:11;;;;;;;1.43;0.50;;;;;;;8.95;100.00;99974.81;6053824;28;20402;-73
2023/12/29 05:29:06;;;;;;;2.60;0.50;;;;;;;8.94;100.00;99970.53;6053894;28;20104;-74
2023/12/29 05:32:02;;;;;;;4.70;0.50;;;;;;;8.94;100.00;99989.03;6053253;28;20044;-75
2023/12/29 05:34:57;;;;;;;1.90;0.50;;;;;;;8.86;100.00;99995.06;6053805;28;20041;-74
2023/12/29 05:37:53;;;;;;;1.33;0.60;;;;;;;8.72;100.00;100000.91;6053592;28;20120;-72
2023/12/29 05:40:48;;;;;;;1.77;0.63;;;;;;;8.40;100.00;99992.66;6054679;28;20029;-72
2023/12/29 05:43:43;;;;;;;1.10;0.40;;;;;;;8.23;100.00;99994.28;6053737;28;20033;-74
2023/12/29 05:46:39;;;;;;;1.40;0.50;;;;;;;8.15;100.00;99986.25;6049977;28;20050;-72
2023/12/29 05:49:38;;;;;;;4.27;0.80;;;;;;;8.14;100.00;99973.19;6054662;28;20277;-72
2023/12/29 05:52:33;;;;;;;2.67;0.70;;;;;;;8.23;100.00;99983.72;6053233;28;20053;-72
2023/12/29 05:55:29;;;;;;;2.80;0.70;;;;;;;8.34;100.00;99957.09;6053904;28;20519;-71
2023/12/29 05:58:24;;;;;;;4.73;1.03;;;;;;;8.56;100.00;99971.66;6054249;28;20112;-73
2023/12/29 06:01:19;;;;;;;3.13;0.90;;;;;;;8.64;100.00;99971.72;6053883;28;20396;-72
2023/12/29 06:04:17;;;;;;;5.53;1.00;;;;;;;8.60;100.00;99970.38;6052790;28;20033;-72
2023/12/29 06:07:12;;;;;;;3.17;0.70;;;;;;;8.58;100.00;99971.53;6051521;28;20030;-72
2023/12/29 06:10:09;;;;;;;2.43;0.83;;;;;;;8.52;100.00;99972.13;6054406;28;20078;-72
2023/12/29 06:13:04;;;;;;;3.03;1.30;;;;;;;8.47;100.00;99983.16;6052711;28;20032;-72
2023/12/29 06:16:00;;;;;;;1.90;0.70;;;;;;;8.38;100.00;99966.38;6052681;28;20033;-73
2023/12/29 06:18:55;;;;;;;3.55;1.00;;;;;;;8.48;100.00;99976.06;6051043;28;20041;-72
2023/12/29 06:21:50;;;;;;;2.73;0.70;;;;;;;8.51;100.00;99967.81;6053333;28;20042;-72
2023/12/29 06:24:46;;;;;;;2.60;0.77;;;;;;;8.56;100.00;99971.66;6051179;28;20052;-74
2023/12/29 06:27:41;;;;;;;2.70;0.90;;;;;;;8.58;100.00;99974.16;6062101;28;20304;-73
2023/12/29 06:30:36;;;;;;;2.88;1.45;;;;;;;8.61;100.00;99987.09;6068564;28;20143;-72
2023/12/29 06:33:32;;;;;;;3.90;0.90;;;;;;;8.56;100.00;99969.03;6063868;28;20033;-70
2023/12/29 06:36:27;;;;;;;1.07;0.60;;;;;;;8.61;100.00;99972.06;6065228;28;20292;-72
2023/12/29 06:39:23;;;;;;;1.50;0.60;;;;;;;8.68;100.00;99983.69;6064401;28;20041;-74
2023/12/29 06:42:18;;;;;;;2.15;0.73;;;;;;;8.74;100.00;99971.66;6064802;28;20089;-73
2023/12/29 06:45:14;;;;;;;2.37;0.80;;;;;;;8.62;100.00;99978.16;6065528;28;20104;-72
2023/12/29 06:48:09;;;;;;;3.35;1.02;;;;;;;8.59;100.00;99976.66;6064062;28;20506;-73
2023/12/29 06:51:05;;;;;;;4.93;1.03;;;;;;;8.55;100.00;99985.03;6064864;28;20033;-73
2023/12/29 06:54:00;;;;;;;2.17;0.70;;;;;;;8.56;100.00;99968.22;6057217;28;20032;-73
2023/12/29 06:56:56;;;;;;;5.88;1.15;;;;;;;8.63;100.00;99972.72;6062931;28;20177;-71
2023/12/29 06:59:51;;;;;;;5.77;1.07;;;;;;;8.77;100.00;99981.94;6063163;28;20044;-73
2023/12/29 07:02:46;;;;;;;4.03;0.90;;;;;;;8.90;100.00;99953.28;6061004;28;20053;-72
2023/12/29 07:05:42;;;;;;;8.33;1.63;;;;;;;8.98;100.00;99964.75;6065918;28;20061;-73
2023/12/29 07:08:38;;;;;;;5.17;1.30;;;;;;;9.15;100.00;99973.63;6064800;28;20057;-72
2023/12/29 07:11:33;;;;;;;4.00;1.08;;;;;;;9.17;100.00;99969.00;6065250;28;20268;-73
2023/12/29 07:14:29;;;;;;;3.92;1.20;;;;;;;9.25;100.00;99978.81;6063218;28;20619;-74
2023/12/29 07:17:26;;;;;;;4.63;1.43;;;;;;;9.25;100.00;99977.00;6064501;28;20044;-73
2023/12/29 07:20:22;;;;;;;3.47;1.00;;;;;;;9.30;100.00;99969.44;6076612;28;20277;-73
2023/12/29 07:23:17;;;;;;;2.70;1.08;;;;;;;9.36;100.00;99983.84;6064893;28;20044;-74
2023/12/29 07:26:12;;;;;;;5.30;1.20;;;;;;;9.38;100.00;99977.41;6057569;28;20037;-75
2023/12/29 07:29:08;;;;;;;2.65;1.00;;;;;;;9.40;100.00;99991.31;6055847;28;20037;-73
2023/12/29 07:32:03;;;;;;;4.47;0.90;;;;;;;9.44;100.00;99984.72;6062657;28;20034;-73
2023/12/29 07:34:59;;;;;;;4.10;1.23;;;;;;;9.49;100.00;99998.31;6058516;28;20339;-73
2023/12/29 07:37:54;;;;;;;2.70;0.95;;;;;;;9.50;100.00;100002.63;6057308;28;20033;-72
2023/12/29 07:40:50;;;;;;;4.00;1.17;;;;;;;9.57;100.00;99987.78;6059317;28;20037;-74
2023/12/29 07:43:45;;;;;;;7.00;1.13;;;;;;;9.53;100.00;99981.16;6059589;28;20516;-72
2023/12/29 07:46:41;;;;;;;4.57;1.10;;;;;;;9.66;100.00;99990.47;6053988;28;20264;-73
2023/12/29 07:49:36;;;;;;;5.88;0.93;;;;;;;9.64;100.00;99993.28;6049748;28;20034;-73
2023/12/29 07:52:31;;;;;;;5.47;1.03;;;;;;;9.66;100.00;99996.59;6051500;28;20030;-73
2023/12/29 07:55:27;;;;;;;3.87;1.00;;;;;;;9.73;100.00;99992.31;6051352;28;20022;-73
2023/12/29 07:58:22;;;;;;;3.70;1.00;;;;;;;9.76;100.00;100001.75;6051081;28;20037;-74
2023/12/29 08:01:18;;;;;;;5.47;1.00;;;;;;;9.80;100.00;100029.59;6058457;28;20044;-72
2023/12/29 08:04:13;;;;;;;2.58;0.90;;;;;;;9.80;100.00;100005.75;6061855;28;20168;-74
2023/12/29 08:07:09;;;;;;;4.63;1.00;;;;;;;9.78;100.00;100005.09;6050897;28;20044;-72
2023/12/29 08:10:06;;;;;;;10.70;1.20;;;;;;;9.86;100.00;100021.88;6059341;28;20273;-76
2023/12/29 08:13:02;;;;;;;2.70;1.40;;;;;;;9.77;100.00;100017.50;6068859;28;20119;-73
2023/12/29 08:15:57;;;;;;;6.57;1.83;;;;;;;9.84;100.00;100015.03;6059887;28;20026;-72
2023/12/29 08:18:53;;;;;;;5.27;1.20;;;;;;;9.87;100.00;100023.50;6057853;28;20033;-73
2023/12/29 08:21:52;;;;;;;4.20;1.20;;;;;;;9.82;100.00;100028.44;6051629;28;20030;-72
2023/12/29 08:24:47;;;;;;;6.68;1.80;;;;;;;9.91;100.00;100029.31;6064130;28;20142;-72
2023/12/29 08:27:43;;;;;;;9.85;1.33;;;;;;;9.89;100.00;100018.06;6062050;28;20034;-73
2023/12/29 08:30:38;;;;;;;6.75;1.20;;;;;;;9.90;100.00;100025.00;6061035;28;20033;-74
2023/12/29 08:33:34;;;;;;;5.43;1.20;;;;;;;9.87;100.00;100025.31;6051094;28;20512;-76
2023/12/29 08:36:30;;;;;;;8.05;1.13;;;;;;;9.85;100.00;100029.94;6060399;28;20276;-74
2023/12/29 08:39:26;;;;;;;4.90;1.40;;;;;;;9.87;100.00;100046.50;6061523;28;20034;-75
2023/12/29 08:42:21;;;;;;;5.47;1.10;;;;;;;9.91;100.00;100047.84;6059004;28;20088;-75
2023/12/29 08:45:17;;;;;;;7.23;1.60;;;;;;;10.00;100.00;100070.75;6049291;28;20026;-73
2023/12/29 08:48:12;;;;;;;7.57;1.65;;;;;;;10.05;100.00;100048.09;6054629;28;20044;-74
2023/12/29 08:51:09;;;;;;;2.53;1.00;;;;;;;10.14;100.00;100059.56;6050020;28;20121;-73
2023/12/29 08:54:05;;;;;;;4.82;1.15;;;;;;;10.20;100.00;100064.25;6055524;28;20418;-74
2023/12/29 08:57:03;;;;;;;3.25;1.13;;;;;;;10.12;100.00;100037.69;6056401;28;20042;-73
2023/12/29 08:59:59;;;;;;;8.20;1.23;;;;;;;10.16;100.00;100047.03;6051993;28;20029;-73
2023/12/29 09:02:54;;;;;;;4.65;1.20;;;;;;;10.14;100.00;100038.38;6058569;28;20408;-72
2023/12/29 09:05:49;;;;;;;3.73;0.93;;;;;;;10.14;100.00;100035.72;6057820;28;20385;-75
2023/12/29 09:08:45;;;;;;;6.47;1.23;;;;;;;10.08;100.00;100028.41;6061812;28;20335;-74
2023/12/29 09:11:44;;;;;;;4.45;1.13;;;;;;;10.11;100.00;100028.06;6053610;28;20283;-73
2023/12/29 09:14:40;;;;;;;3.38;1.00;;;;;;;10.14;100.00;100033.06;6058290;28;20021;-75
2023/12/29 09:17:35;;;;;;;4.63;1.10;;;;;;;10.10;100.00;100037.03;6051012;28;20045;-74
2023/12/29 09:20:30;;;;;;;8.07;1.35;;;;;;;10.15;100.00;100029.44;6053853;28;20026;-73
2023/12/29 09:23:26;;;;;;;4.10;0.85;;;;;;;10.18;100.00;100007.94;6049842;28;20038;-74
2023/12/29 09:26:24;;;;;;;5.10;0.90;;;;;;;10.19;100.00;100017.56;6056436;28;20026;-76
2023/12/29 09:29:23;;;;;;;3.53;1.05;;;;;;;10.15;100.00;100014.38;6053189;28;20030;-73
2023/12/29 09:32:19;;;;;;;8.77;1.90;;;;;;;10.24;100.00;100025.00;6053181;28;20452;-74
2023/12/29 09:35:17;;;;;;;5.82;1.20;;;;;;;10.30;100.00;100017.22;6058217;28;20091;-74
2023/12/29 09:38:12;;;;;;;9.57;1.25;;;;;;;10.28;100.00;100026.34;6054175;28;20397;-73
2023/12/29 09:41:11;;;;;;;4.32;1.00;;;;;;;10.25;100.00;100029.31;6060029;28;20022;-73
2023/12/29 09:44:13;;;;;;;6.15;1.00;;;;;;;10.24;100.00;100036.44;6071241;28;20026;-73
2023/12/29 09:47:12;;;;;;;4.85;0.90;;;;;;;10.23;100.00;100045.38;6054637;28;20405;-73
2023/12/29 09:50:12;;;;;;;4.97;0.90;;;;;;;10.22;100.00;100040.25;6050464;28;20045;-74
2023/12/29 09:53:10;;;;;;;5.25;1.10;;;;;;;10.02;100.00;100024.56;6047475;28;20377;-73
2023/12/29 09:56:10;;;;;;;5.63;1.27;;;;;;;9.93;100.00;100048.53;6052182;28;20026;-75
2023/12/29 09:59:06;;;;;;;4.22;1.42;;;;;;;9.69;100.00;100051.03;6045489;28;20106;-74
2023/12/29 10:02:04;;;;;;;4.25;1.10;;;;;;;9.51;100.00;100049.28;6079636;28;20049;-73
2023/12/29 10:05:03;;;;;;;7.25;1.73;;;;;;;9.28;100.00;100045.47;6065998;28;20034;-75
2023/12/29 10:08:03;;;;;;;8.50;2.40;;;;;;;9.08;100.00;100051.13;6057949;28;20054;-75
2023/12/29 10:11:00;;;;;;;4.78;1.13;;;;;;;8.87;100.00;100052.25;6051019;28;20469;-74
2023/12/29 10:13:59;;;;;;;7.68;1.08;;;;;;;8.60;100.00;100065.53;6063559;28;20032;-73
2023/12/29 10:17:03;;;;;;;11.32;1.23;;;;;;;8.38;100.00;100050.09;6076246;28;20044;-73
2023/12/29 10:20:11;;;;;;;4.35;1.15;;;;;;;8.28;100.00;100066.00;6057335;28;20389;-73
2023/12/29 10:23:12;;;;;;;2.33;0.82;;;;;;;8.03;100.00;100061.38;6074946;28;20037;-73
2023/12/29 10:26:10;;;;;;;4.38;1.25;;;;;;;7.91;100.00;100059.06;6059731;28;20045;-72
2023/12/29 10:29:06;;;;;;;6.80;1.85;;;;;;;7.83;100.00;100057.13;6056391;28;20358;-74
2023/12/29 10:32:02;;;;;;;5.93;1.52;;;;;;;7.79;100.00;100068.97;6048441;28;20048;-74
2023/12/29 10:35:10;;;;;;;2.13;1.00;;;;;;;7.78;100.00;100056.72;6049644;28;20461;-73
2023/12/29 10:38:10;;;;;;;7.32;2.45;;;;;;;7.78;100.00;100040.91;6049974;28;20358;-74
2023/12/29 10:41:12;;;;;;;6.57;1.65;;;;;;;7.81;100.00;100048.53;6047168;28;20059;-74
2023/12/29 10:44:08;;;;;;;6.93;1.60;;;;;;;7.86;100.00;100043.66;6052689;28;20046;-74
2023/12/29 10:47:10;;;;;;;3.65;1.20;;;;;;;7.79;100.00;100032.03;6057421;28;20160;-74
2023/12/29 10:50:07;;;;;;;8.32;1.58;;;;;;;7.79;100.00;100032.84;6059683;28;20048;-74
2023/12/29 10:53:17;;;;;;;7.95;1.45;;;;;;;7.83;100.00;100049.22;6055083;28;20104;-73
2023/12/29 10:56:22;;;;;;;3.53;1.10;;;;;;;7.80;100.00;100034.50;6055551;28;20600;-72
2023/12/29 10:59:18;;;;;;;4.30;0.85;;;;;;;7.81;100.00;100032.69;6055930;28;20062;-72
2023/12/29 11:02:17;;;;;;;4.07;1.17;;;;;;;7.78;100.00;100035.63;6063905;28;20481;-72
2023/12/29 11:05:13;;;;;;;1.23;0.80;;;;;;;7.81;100.00;100032.69;6065856;28;20592;-73
2023/12/29 11:08:18;;;;;;;3.53;0.85;;;;;;;7.78;100.00;100015.34;6062953;28;20037;-74
2023/12/29 11:11:14;;;;;;;2.72;1.27;;;;;;;7.80;100.00;100007.28;6069637;28;20175;-72
2023/12/29 11:14:10;;;;;;;4.95;1.05;;;;;;;7.82;100.00;100015.06;6070579;28;20037;-74
2023/12/29 11:17:06;;;;;;;3.20;0.63;;;;;;;7.89;100.00;100022.25;6060129;28;20059;-73
2023/12/29 11:20:03;;;;;;;4.10;1.10;;;;;;;7.89;100.00;100024.88;6077011;28;20092;-73
2023/12/29 11:22:58;;;;;;;2.47;0.85;;;;;;;7.94;100.00;100008.59;6067376;28;20037;-73
2023/12/29 11:25:54;;;;;;;2.37;1.27;;;;;;;7.92;100.00;100006.13;6070708;28;20037;-72
2023/12/29 11:28:50;;;;;;;6.80;1.58;;;;;;;8.00;100.00;99998.28;6058685;28;20029;-74
2023/12/29 11:31:48;;;;;;;2.72;0.50;;;;;;;8.01;100.00;99996.50;6061096;28;20053;-73
2023/12/29 11:34:52;;;;;;;4.20;0.90;;;;;;;8.14;100.00;99989.03;6070451;28;20041;-74
2023/12/29 11:38:17;;;;;;;2.28;1.00;;;;;;;8.22;100.00;99975.94;6054140;28;20026;-72
2023/12/29 11:41:26;;;;;;;3.28;0.75;;;;;;;8.30;100.00;99968.94;6069613;28;20151;-71
2023/12/29 11:44:29;;;;;;;2.63;0.80;;;;;;;8.47;100.00;99969.94;6056234;28;20108;-74
2023/12/29 11:47:35;;;;;;;1.38;0.80;;;;;;;8.62;100.00;99978.16;6067766;28;20393;-73
2023/12/29 11:50:31;;;;;;;2.10;0.93;;;;;;;8.75;100.00;99968.06;6056406;28;20056;-74
2023/12/29 11:53:33;;;;;;;1.63;0.70;;;;;;;8.84;100.00;99953.91;6068283;28;20366;-72
2023/12/29 11:56:37;;;;;;;1.83;0.70;;;;;;;8.97;100.00;99965.72;6069738;28;20167;-73
2023/12/29 11:59:47;;;;;;;0.77;0.35;;;;;;;9.05;100.00;99957.03;6060046;28;20057;-73
2023/12/29 12:02:42;;;;;;;1.73;0.40;;;;;;;9.19;100.00;99956.47;6061306;28;20048;-73
2023/12/29 12:05:50;;;;;;;1.17;0.50;;;;;;;9.27;100.00;99961.81;6064690;28;20037;-72
2023/12/29 12:08:45;;;;;;;2.38;0.80;;;;;;;9.34;100.00;99960.22;6064514;28;20021;-72
2023/12/29 12:11:41;;;;;;;1.98;0.57;;;;;;;9.39;100.00;99939.41;6061133;28;20134;-72
2023/12/29 12:14:52;;;;;;;1.67;0.47;;;;;;;9.52;100.00;99960.13;6067112;28;20021;-73
2023/12/29 12:17:50;;;;;;;1.58;0.30;;;;;;;9.51;100.00;99945.25;6067174;28;20116;-72
2023/12/29 12:20:50;;;;;;;1.35;0.80;;;;;;;9.64;100.00;99947.44;6051601;28;20100;-73
2023/12/29 12:23:45;;;;;;;1.25;0.40;;;;;;;9.69;100.00;99921.31;6056265;28;20428;-73
2023/12/29 12:26:46;;;;;;;0.40;0.30;;;;;;;9.68;100.00;99948.78;6079632;28;20053;-73
2023/12/29 12:29:42;;;;;;;1.85;0.50;;;;;;;9.74;100.00;99943.69;6059945;28;20273;-74
2023/12/29 12:32:37;;;;;;;1.43;0.40;;;;;;;9.72;100.00;99936.91;6058083;28;20436;-75
2023/12/29 12:35:32;;;;;;;1.07;0.57;;;;;;;9.79;100.00;99937.91;6067057;28;20284;-74
2023/12/29 12:38:33;;;;;;;1.35;0.57;;;;;;;9.77;100.00;99929.28;6064882;28;20310;-75
2023/12/29 12:41:38;;;;;;;0.65;0.40;;;;;;;9.75;100.00;99941.88;6062261;28;20668;-74
2023/12/29 12:44:33;;;;;;;1.15;0.38;;;;;;;9.76;100.00;99947.00;6062402;28;20030;-75
2023/12/29 12:47:44;;;;;;;0.63;0.40;;;;;;;9.85;100.00;99963.75;6048108;28;20539;-73
2023/12/29 12:50:44;;;;;;;4.75;1.85;;;;;;;9.51;100.00;99961.13;6065295;28;20694;-73
2023/12/29 12:53:48;;;;;;;0.88;0.40;;;;;;;9.15;100.00;99954.28;6054364;28;20112;-74
2023/12/29 12:56:44;;;;;;;0.85;0.35;;;;;;;8.97;100.00;99967.53;6066111;28;20102;-73
2023/12/29 12:59:39;;;;;;;1.85;0.50;;;;;;;8.90;100.00;99969.16;6075093;28;20022;-74
2023/12/29 13:02:35;;;;;;;1.15;0.70;;;;;;;8.92;100.00;99977.75;6076434;28;20029;-72
2023/12/29 13:05:31;;;;;;;0.93;0.43;;;;;;;8.98;100.00;99979.78;6060402;28;20026;-72
2023/12/29 13:08:26;;;;;;;1.43;0.40;;;;;;;9.06;100.00;99977.19;6065726;28;20034;-73
2023/12/29 13:11:24;;;;;;;1.80;0.40;;;;;;;9.06;100.00;99958.69;6076053;28;20032;-73
2023/12/29 13:14:21;;;;;;;0.93;0.50;;;;;;;9.13;100.00;99957.06;6058815;28;20040;-74
2023/12/29 13:17:17;;;;;;;0.75;0.43;;;;;;;9.27;100.00;99968.91;6067716;28;20108;-73
2023/12/29 13:20:12;;;;;;;0.25;0.25;;;;;;;9.23;100.00;99952.53;6063718;28;20037;-73
2023/12/29 13:23:08;;;;;;;1.40;0.40;;;;;;;9.32;100.00;99946.28;6058809;28;20061;-74
2023/12/29 13:26:07;;;;;;;1.10;0.50;;;;;;;9.39;100.00;99963.22;6060351;28;20053;-73
2023/12/29 13:29:03;;;;;;;0.40;0.28;;;;;;;9.50;100.00;99965.59;6070896;28;20029;-74
2023/12/29 13:32:05;;;;;;;0.50;0.30;;;;;;;9.55;100.00;99958.00;6064114;28;20269;-73
2023/12/29 13:35:08;;;;;;;0.20;0.13;;;;;;;9.50;100.00;99959.47;6065615;28;20107;-75
2023/12/29 13:38:27;;;;;;;1.02;0.25;;;;;;;9.47;100.00;99954.47;6087720;28;20610;-74
2023/12/29 13:41:23;;;;;;;0.25;0.20;;;;;;;9.47;100.00;99965.91;6083449;28;20029;-73
2023/12/29 13:44:19;;;;;;;0.40;0.30;;;;;;;9.44;100.00;99949.50;6054013;28;20036;-75
2023/12/29 13:47:16;;;;;;;0.50;0.43;;;;;;;9.54;100.00;99958.13;6069718;28;20045;-73
2023/12/29 13:50:12;;;;;;;0.77;0.40;;;;;;;9.64;100.00;99971.28;6066730;28;20025;-76